Airfield :
LOGIN :

Register | Disclaimer

   EN    FR    IT 

 










Legend :    VFR   Marginal VFR   IFR   Intensive IFR   Very Intensive IFR
Visi :
Ceiling :
>= 8 km
>= 3000ft
5 to 8 km
1000 to 3000 ft
1500m to 5 km
500 to 1000 ft
800 to 1500m
200 to 500 ft
< 800m
< 200 ft
Symbols :   Thunderstorms  Fog  Heavy snow  Heavy precipitations  Wind > 20 kt
SIGMETs :     Misc.  Thunderstorms  Icing  Turbulence  Mountain Waves  Volcanic Ashes







- Airport Elevation : 463 ft
- IATA code : QAS


DAOI - Chlef Int.

CURRENT METAR :
  • 240900Z 00000KT 9999 SCT040 29/16 Q1017

EXPIRED METARs :
  • 240800Z 00000KT 9999 FEW026 SCT230 26/16 Q1017
  • 240700Z 06008KT 9999 FEW026 SCT233 22/14 Q1017

TAF TAF DAOI
Valid from the 24 at 06:00 until the 25 at 06:00 UTC


240500Z 2406/2506 VRB02KT 9999 FEW026
BECMG 2410/2412 06010KT
BECMG 2418/2420 VRB02KT
No reported NOTAMs for that airfield.



MET'MAP, your aeronautical weather chart ! - Copyright ORBIFLY December 2007 - Disclaimer

ORBIFLY MET'MAP TEAM :

Programming & Development : Alexandra Zaïnal
Concept & Development : Baudouin d'Aumeries
Co-Development & Prog : Marc-Olivier Méhu
Technical & hardware support : Manuel Goepfert

Contact : metmap@orbifly.com




SOURCES & CREDITS :

   NOAA